Time;durP1;ratioP1;P1;durP2;ratioP2;P2;SDS_P1;SDS_P2;PMS_P1;PMS_P2;Temp;Humidity;BMP_temperature;BMP_pressure;BME280_temperature;BME280_humidity;BME280_pressure;Samples;Min_cycle;Max_cycle;Signal;HPM_P1;HPM_P2
2022/02/06 00:00:52;;;;;;;23.70;14.65;;;5.90;49.90;;;;;;4957589;28;20058;-91
2022/02/06 00:03:19;;;;;;;24.10;15.15;;;5.90;49.90;;;;;;4973387;28;20073;-94
2022/02/06 00:05:48;;;;;;;23.73;14.95;;;5.90;49.80;;;;;;4945605;28;20045;-93
2022/02/06 00:08:14;;;;;;;22.73;14.85;;;5.90;49.80;;;;;;4977927;28;20061;-94
2022/02/06 00:10:40;;;;;;;20.55;14.30;;;5.90;49.70;;;;;;4927419;28;20038;-93
2022/02/06 00:13:07;;;;;;;21.95;14.73;;;5.90;49.60;;;;;;4974693;28;20031;-92
2022/02/06 00:15:33;;;;;;;22.33;14.25;;;6.00;49.60;;;;;;4991467;28;20126;-91
2022/02/06 00:18:00;;;;;;;22.25;14.80;;;6.00;49.40;;;;;;4951359;28;20142;-90
2022/02/06 00:20:32;;;;;;;20.88;14.15;;;6.00;49.20;;;;;;4961697;28;20490;-90
2022/02/06 00:23:02;;;;;;;20.90;14.30;;;6.00;49.90;;;;;;4963052;28;20035;-92
2022/02/06 00:25:37;;;;;;;21.02;14.38;;;6.00;49.30;;;;;;4955974;28;20474;-90
2022/02/06 00:33:04;;;;;;;20.42;13.98;;;6.00;49.20;;;;;;4947474;28;20119;-92
2022/02/06 00:41:14;;;;;;;21.90;13.90;;;6.00;49.20;;;;;;4954849;28;20035;-92
2022/02/06 00:43:41;;;;;;;18.98;12.85;;;6.00;49.30;;;;;;4945035;28;20042;-93
2022/02/06 00:46:09;;;;;;;19.50;13.38;;;6.00;49.30;;;;;;4932394;28;20038;-91
2022/02/06 00:48:41;;;;;;;21.88;14.35;;;5.90;49.20;;;;;;4913989;28;20072;-91
2022/02/06 00:51:18;;;;;;;22.25;13.77;;;5.90;49.30;;;;;;4944311;28;20390;-89
2022/02/06 00:53:44;;;;;;;20.92;13.07;;;5.90;49.30;;;;;;4928448;28;20727;-91
2022/02/06 00:56:10;;;;;;;18.13;12.52;;;5.90;49.50;;;;;;4958926;28;20061;-88
2022/02/06 00:58:37;;;;;;;20.05;14.10;;;5.90;49.40;;;;;;4957147;28;20046;-87
2022/02/06 01:01:04;;;;;;;18.67;13.02;;;5.90;49.50;;;;;;4944347;28;20023;-87
2022/02/06 01:03:30;;;;;;;24.55;14.40;;;5.90;49.50;;;;;;4927362;28;20031;-88
2022/02/06 01:05:56;;;;;;;20.23;12.85;;;5.90;49.40;;;;;;4927417;28;20150;-88
2022/02/06 01:08:23;;;;;;;19.38;13.25;;;5.90;49.40;;;;;;4928058;28;20565;-89
2022/02/06 01:10:49;;;;;;;22.27;13.32;;;5.90;49.40;;;;;;4926892;28;20031;-88
2022/02/06 01:13:31;;;;;;;19.73;13.40;;;5.90;49.40;;;;;;4942830;28;20039;-89
2022/02/06 01:16:23;;;;;;;20.98;13.52;;;5.90;49.40;;;;;;4925835;28;20045;-88
2022/02/06 01:18:53;;;;;;;;;;;5.80;49.40;;;;;;4958580;28;20039;-88
2022/02/06 01:27:09;;;;;;;19.83;12.68;;;5.80;49.50;;;;;;4945611;28;20043;-89
2022/02/06 01:29:44;;;;;;;21.77;13.75;;;5.80;49.50;;;;;;4932237;28;20043;-89
2022/02/06 01:32:15;;;;;;;22.08;13.85;;;5.90;49.50;;;;;;4910722;28;20041;-89
2022/02/06 01:34:53;;;;;;;19.60;13.50;;;5.80;49.40;;;;;;4925755;28;20038;-89
2022/02/06 01:37:27;;;;;;;19.75;12.75;;;5.90;49.30;;;;;;4943106;28;20194;-90
2022/02/06 01:40:06;;;;;;;23.58;14.20;;;6.00;49.30;;;;;;4942513;28;20064;-89
2022/02/06 02:02:00;;;;;;;22.35;14.13;;;6.00;48.90;;;;;;4938134;28;20100;-89
2022/02/06 02:07:30;;;;;;;20.17;14.00;;;6.00;48.80;;;;;;4942263;28;20082;-90
2022/02/06 02:23:42;;;;;;;19.52;13.45;;;5.90;48.80;;;;;;4959203;28;20031;-88
2022/02/06 02:31:48;;;;;;;20.80;13.82;;;5.90;48.90;;;;;;4967097;28;20043;-88
2022/02/06 02:47:40;;;;;;;19.10;13.57;;;5.90;49.00;;;;;;4929467;28;20042;-88
2022/02/06 02:50:17;;;;;;;21.50;14.07;;;5.90;49.00;;;;;;4975630;28;20027;-89
2022/02/06 02:55:29;;;;;;;23.92;14.32;;;5.90;48.90;;;;;;4957353;28;20030;-89
2022/02/06 03:00:43;;;;;;;21.20;15.00;;;6.00;48.80;;;;;;4948195;28;20076;-88
2022/02/06 03:03:17;;;;;;;25.73;15.68;;;6.00;48.80;;;;;;4955278;28;20074;-91
2022/02/06 03:05:44;;;;;;;23.35;15.57;;;6.00;48.60;;;;;;4948948;28;20401;-93
2022/02/06 03:08:11;;;;;;;22.88;15.65;;;6.00;48.50;;;;;;4929634;28;20026;-91
2022/02/06 03:10:38;;;;;;;23.02;15.45;;;6.10;48.50;;;;;;4944641;28;20438;-92
2022/02/06 03:13:08;;;;;;;21.88;14.65;;;6.10;48.50;;;;;;4930599;28;20062;-91
2022/02/06 03:15:44;;;;;;;22.42;15.07;;;6.10;48.50;;;;;;4914126;28;20043;-89
2022/02/06 03:18:21;;;;;;;21.48;14.82;;;6.10;48.40;;;;;;4932756;28;20058;-90
2022/02/06 03:20:49;;;;;;;23.02;15.90;;;6.10;48.30;;;;;;4951430;28;20027;-90
2022/02/06 03:23:16;;;;;;;22.92;14.82;;;6.10;48.20;;;;;;4969798;28;20565;-89
2022/02/06 03:25:55;;;;;;;26.77;15.52;;;6.10;48.80;;;;;;4953200;28;20125;-91
2022/02/06 03:28:23;;;;;;;21.67;14.00;;;6.10;48.10;;;;;;4935400;28;20039;-90
2022/02/06 03:30:49;;;;;;;24.02;15.38;;;6.10;48.20;;;;;;4965853;28;20154;-91
2022/02/06 03:33:15;;;;;;;25.42;16.73;;;6.10;48.20;;;;;;4951143;28;20051;-88
2022/02/06 03:35:43;;;;;;;24.17;15.77;;;6.10;48.20;;;;;;4947913;28;20114;-87
2022/02/06 03:38:09;;;;;;;24.08;15.30;;;6.10;48.10;;;;;;4964242;28;20969;-88
2022/02/06 03:41:12;;;;;;;25.35;16.08;;;6.10;48.10;;;;;;4962802;28;20418;-88
2022/02/06 03:46:22;;;;;;;23.38;15.20;;;6.10;48.00;;;;;;4950480;28;20038;-88
2022/02/06 03:48:57;;;;;;;22.60;15.50;;;6.00;47.90;;;;;;4944911;28;20034;-88
2022/02/06 03:51:30;;;;;;;22.58;15.70;;;6.00;47.90;;;;;;4934269;28;20035;-88
2022/02/06 03:53:56;;;;;;;26.48;15.85;;;6.00;47.90;;;;;;4961754;28;20035;-88
2022/02/06 03:56:25;;;;;;;21.88;14.82;;;6.00;48.00;;;;;;4927152;28;20038;-87
2022/02/06 03:58:51;;;;;;;22.60;15.15;;;6.00;48.00;;;;;;4931660;28;20023;-88
2022/02/06 04:01:17;;;;;;;25.17;15.93;;;6.00;48.00;;;;;;4946114;28;20082;-90
2022/02/06 04:03:44;;;;;;;26.17;16.33;;;6.00;48.10;;;;;;4931017;28;20520;-89
2022/02/06 04:06:10;;;;;;;23.73;15.60;;;6.00;48.10;;;;;;4962455;28;20045;-90
2022/02/06 04:08:38;;;;;;;21.52;14.65;;;6.00;48.10;;;;;;4930454;28;20078;-89
2022/02/06 04:11:08;;;;;;;23.13;15.00;;;6.00;48.20;;;;;;4962650;28;20137;-91
2022/02/06 04:13:39;;;;;;;24.30;15.45;;;6.00;48.10;;;;;;4931171;28;20129;-88
2022/02/06 04:16:12;;;;;;;23.65;15.23;;;6.00;48.20;;;;;;4953048;28;20055;-90
2022/02/06 04:19:06;;;;;;;22.63;15.05;;;6.00;48.10;;;;;;4962725;28;20506;-89
2022/02/06 04:21:27;;;;;;;22.67;15.70;;;6.10;48.10;;;;;;4973705;28;20402;-89
2022/02/06 04:23:53;;;;;;;22.85;15.45;;;6.10;48.00;;;;;;4940451;28;20031;-89
2022/02/06 04:26:19;;;;;;;22.55;15.48;;;6.10;48.00;;;;;;4958805;28;20046;-91
2022/02/06 04:28:45;;;;;;;25.85;16.33;;;6.10;47.90;;;;;;4970149;28;20046;-91
2022/02/06 04:31:11;;;;;;;25.02;16.10;;;6.10;47.80;;;;;;4953679;28;20476;-90
2022/02/06 04:33:37;;;;;;;23.88;15.93;;;6.10;47.80;;;;;;4971094;28;20043;-89
2022/02/06 04:36:05;;;;;;;22.13;14.63;;;6.20;47.80;;;;;;4938820;28;20528;-90
2022/02/06 04:39:13;;;;;;;24.50;16.02;;;6.20;47.90;;;;;;4954406;28;20027;-91
2022/02/06 04:49:29;;;;;;;22.75;14.77;;;6.10;47.70;;;;;;4953369;28;20038;-88
2022/02/06 04:54:54;;;;;;;24.85;16.15;;;6.10;47.70;;;;;;4967087;28;20506;-88
2022/02/06 05:32:31;;;;;;;24.23;15.75;;;6.10;47.60;;;;;;4885998;29;20790;-86
2022/02/06 05:34:58;;;;;;;23.30;14.88;;;6.10;47.60;;;;;;4863444;29;20045;-87
2022/02/06 05:37:26;;;;;;;25.42;15.80;;;6.20;47.50;;;;;;4866616;29;20041;-87
2022/02/06 05:39:56;;;;;;;22.77;15.43;;;6.20;47.40;;;;;;4880451;29;20037;-87
2022/02/06 05:42:22;;;;;;;24.23;16.27;;;6.20;47.30;;;;;;4847960;29;20412;-88
2022/02/06 05:44:54;;;;;;;23.45;15.23;;;6.20;47.30;;;;;;4848270;29;20040;-86
2022/02/06 05:47:22;;;;;;;24.58;15.55;;;6.20;47.30;;;;;;4881268;29;20040;-88
2022/02/06 05:49:48;;;;;;;24.00;15.85;;;6.20;47.30;;;;;;4854541;29;20056;-89
2022/02/06 05:52:14;;;;;;;24.67;16.27;;;6.20;47.80;;;;;;4840199;29;20886;-86
2022/02/06 05:54:40;;;;;;;23.30;15.60;;;6.30;47.60;;;;;;4873274;29;20052;-88
2022/02/06 05:57:06;;;;;;;25.27;15.65;;;6.30;47.50;;;;;;4964756;28;20039;-85
2022/02/06 05:59:32;;;;;;;24.85;15.73;;;6.30;47.50;;;;;;4963058;28;20039;-89
2022/02/06 06:01:58;;;;;;;23.13;15.18;;;6.30;47.50;;;;;;4964820;28;20085;-89
2022/02/06 06:04:24;;;;;;;23.98;15.77;;;6.30;47.50;;;;;;4933438;29;20035;-91
2022/02/06 06:06:50;;;;;;;23.58;15.30;;;6.30;47.40;;;;;;4917834;29;20039;-91
2022/02/06 06:09:17;;;;;;;24.27;16.17;;;6.30;47.50;;;;;;4964170;28;20128;-92
2022/02/06 06:11:43;;;;;;;23.50;15.02;;;6.30;47.50;;;;;;4963469;28;20062;-91
2022/02/06 06:14:09;;;;;;;23.30;15.07;;;6.30;47.40;;;;;;4932271;29;20406;-90
2022/02/06 06:16:35;;;;;;;23.40;15.70;;;6.30;47.40;;;;;;4948377;28;20784;-86
2022/02/06 06:19:03;;;;;;;23.85;15.27;;;6.30;47.40;;;;;;4966087;28;20034;-88
2022/02/06 06:21:35;;;;;;;22.02;15.60;;;6.30;47.40;;;;;;4950673;28;20062;-87
2022/02/06 06:24:02;;;;;;;22.60;14.60;;;6.30;47.40;;;;;;4950747;28;20109;-89
2022/02/06 06:26:33;;;;;;;22.65;15.48;;;6.30;47.40;;;;;;4951721;28;20038;-90
2022/02/06 06:28:59;;;;;;;27.65;16.08;;;6.30;47.40;;;;;;4950229;28;20035;-87
2022/02/06 06:31:26;;;;;;;24.15;15.52;;;6.30;47.40;;;;;;4917760;28;20173;-85
2022/02/06 06:33:52;;;;;;;24.10;15.98;;;6.30;47.40;;;;;;4950282;28;20027;-86
2022/02/06 06:36:21;;;;;;;23.52;15.63;;;6.20;47.30;;;;;;4949670;28;20030;-86
2022/02/06 06:38:53;;;;;;;24.75;15.15;;;6.30;47.40;;;;;;4951184;28;20516;-86
2022/02/06 06:41:19;;;;;;;24.75;14.80;;;6.20;47.30;;;;;;4982721;28;20406;-83
2022/02/06 06:43:46;;;;;;;21.40;15.27;;;6.30;47.30;;;;;;4935508;28;20077;-83
2022/02/06 06:46:13;;;;;;;22.98;14.57;;;6.30;47.40;;;;;;4949790;28;20039;-89
2022/02/06 06:48:39;;;;;;;24.40;14.38;;;6.30;47.60;;;;;;4917026;28;20461;-84
2022/02/06 06:51:06;;;;;;;21.15;12.90;;;6.30;48.80;;;;;;4964714;28;20042;-85
2022/02/06 06:53:37;;;;;;;19.92;13.40;;;6.40;49.90;;;;;;4932625;28;20086;-85
2022/02/06 06:56:09;;;;;;;20.63;13.50;;;6.40;50.70;;;;;;4949252;28;20031;-85
2022/02/06 06:58:41;;;;;;;18.33;13.15;;;6.40;51.20;;;;;;4948297;28;20537;-87
2022/02/06 07:01:41;;;;;;;17.77;12.63;;;6.50;51.70;;;;;;4966152;28;20042;-80
2022/02/06 07:03:59;;;;;;;20.05;13.73;;;6.50;52.20;;;;;;4957169;28;20441;-83
2022/02/06 07:06:26;;;;;;;19.23;12.57;;;6.50;52.50;;;;;;4964546;28;20485;-86
2022/02/06 07:08:52;;;;;;;24.85;12.88;;;6.60;52.70;;;;;;4963549;28;20050;-83
2022/02/06 07:11:18;;;;;;;21.45;13.32;;;6.60;52.90;;;;;;4963869;28;20486;-90
2022/02/06 07:13:44;;;;;;;17.20;12.35;;;6.60;53.00;;;;;;4949664;28;20062;-83
2022/02/06 07:16:10;;;;;;;18.55;12.25;;;6.70;53.20;;;;;;4949849;28;20041;-81
2022/02/06 07:18:36;;;;;;;18.80;12.05;;;6.70;53.30;;;;;;4972013;28;20050;-81
2022/02/06 07:21:02;;;;;;;17.48;12.65;;;6.70;53.40;;;;;;4967271;28;20628;-81
2022/02/06 07:23:28;;;;;;;17.98;12.18;;;6.70;53.80;;;;;;4968484;28;20038;-81
2022/02/06 07:25:59;;;;;;;20.35;12.20;;;6.80;53.90;;;;;;4968452;28;20917;-81
2022/02/06 07:28:25;;;;;;;23.85;12.85;;;6.80;54.10;;;;;;4951812;28;20027;-81
2022/02/06 07:30:52;;;;;;;21.80;13.32;;;6.90;54.50;;;;;;4969095;28;20098;-82
2022/02/06 07:33:20;;;;;;;21.50;11.98;;;6.90;54.50;;;;;;4965801;28;20047;-83
2022/02/06 07:35:47;;;;;;;14.80;9.40;;;6.90;55.10;;;;;;4966449;28;20035;-80
2022/02/06 07:38:14;;;;;;;18.42;11.00;;;7.00;59.00;;;;;;4966521;28;20038;-81
2022/02/06 07:40:41;;;;;;;18.50;11.82;;;7.10;58.70;;;;;;4965544;28;20031;-81
2022/02/06 07:43:08;;;;;;;17.15;11.30;;;7.10;58.00;;;;;;4964655;28;20054;-86
2022/02/06 07:45:39;;;;;;;18.70;12.00;;;7.20;57.40;;;;;;4956030;28;20106;-85
2022/02/06 07:48:07;;;;;;;22.63;12.68;;;7.30;57.00;;;;;;4955981;28;20616;-86
2022/02/06 07:50:33;;;;;;;21.38;12.13;;;7.30;56.60;;;;;;4957337;28;20125;-84
2022/02/06 07:52:59;;;;;;;19.58;13.13;;;7.30;56.40;;;;;;4968663;28;20134;-84
2022/02/06 07:55:25;;;;;;;19.75;12.68;;;7.40;56.40;;;;;;4936747;28;20509;-84
2022/02/06 07:57:51;;;;;;;17.42;12.38;;;7.40;56.30;;;;;;4962110;28;20031;-82
2022/02/06 08:00:17;;;;;;;18.20;12.65;;;7.40;56.20;;;;;;4976419;28;20109;-90
2022/02/06 08:02:43;;;;;;;16.77;12.10;;;7.50;56.10;;;;;;4969762;28;20042;-85
2022/02/06 08:05:10;;;;;;;19.05;13.35;;;7.50;56.30;;;;;;4973785;28;20065;-86
2022/02/06 08:07:38;;;;;;;18.98;12.20;;;7.50;56.30;;;;;;4974923;28;20366;-85
2022/02/06 08:10:05;;;;;;;20.50;12.77;;;7.50;56.20;;;;;;4972931;28;20038;-84
2022/02/06 08:12:34;;;;;;;22.40;13.18;;;7.50;56.30;;;;;;4972480;28;20030;-86
2022/02/06 08:15:03;;;;;;;20.63;12.90;;;7.50;56.20;;;;;;4938357;28;20043;-88
2022/02/06 08:17:33;;;;;;;19.15;12.27;;;7.60;56.30;;;;;;4969155;28;20057;-92
2022/02/06 08:20:03;;;;;;;18.77;12.30;;;7.60;56.30;;;;;;4954924;28;20074;-83
2022/02/06 08:22:30;;;;;;;20.40;12.80;;;7.60;56.30;;;;;;4969312;28;20581;-86
2022/02/06 08:24:56;;;;;;;22.75;13.68;;;7.70;56.40;;;;;;4935496;28;20058;-85
2022/02/06 08:27:35;;;;;;;21.35;13.40;;;7.70;56.40;;;;;;4937266;28;20038;-86
2022/02/06 08:30:02;;;;;;;19.95;13.63;;;7.70;56.30;;;;;;4969725;28;20474;-82
2022/02/06 08:32:28;;;;;;;21.05;12.32;;;7.70;56.40;;;;;;4972428;28;20058;-84
2022/02/06 08:34:56;;;;;;;23.00;14.10;;;7.70;56.90;;;;;;4973112;28;20449;-86
2022/02/06 08:37:25;;;;;;;21.20;13.40;;;7.70;56.30;;;;;;4964103;28;20038;-85
2022/02/06 08:39:52;;;;;;;21.02;14.32;;;7.80;56.50;;;;;;4968068;28;20129;-82
2022/02/06 08:42:18;;;;;;;23.35;14.30;;;7.80;56.40;;;;;;4955914;28;20473;-83
2022/02/06 08:44:46;;;;;;;23.08;14.52;;;7.80;56.40;;;;;;4955833;28;20039;-85
2022/02/06 08:47:18;;;;;;;23.15;15.43;;;7.80;56.50;;;;;;4969952;28;20036;-87
2022/02/06 08:49:45;;;;;;;26.23;16.23;;;7.80;56.60;;;;;;4955343;28;20501;-85
2022/02/06 08:52:12;;;;;;;24.23;15.15;;;7.90;56.80;;;;;;4970541;28;20109;-88
2022/02/06 08:54:39;;;;;;;25.35;15.10;;;7.90;57.00;;;;;;4958109;28;20058;-95
2022/02/06 08:57:45;;;;;;;22.40;14.48;;;7.90;57.40;;;;;;4940452;28;20031;-82
2022/02/06 09:00:00;;;;;;;23.55;14.30;;;7.90;57.70;;;;;;4968394;28;20031;-80
2022/02/06 09:02:26;;;;;;;26.40;14.45;;;8.00;57.90;;;;;;4951588;28;20037;-84
2022/02/06 09:04:52;;;;;;;25.52;14.93;;;8.00;58.20;;;;;;4935436;28;20062;-81
2022/02/06 09:07:20;;;;;;;20.65;13.85;;;8.00;58.20;;;;;;4967905;28;20042;-80
2022/02/06 09:09:49;;;;;;;28.60;14.70;;;8.00;58.10;;;;;;4968245;28;20038;-84
2022/02/06 09:12:16;;;;;;;28.05;16.20;;;8.10;58.20;;;;;;4936614;28;20576;-85
2022/02/06 09:14:43;;;;;;;29.38;14.90;;;8.10;58.20;;;;;;4935000;28;20042;-85
2022/02/06 09:17:09;;;;;;;29.52;15.50;;;8.10;58.20;;;;;;4948568;28;20054;-83
2022/02/06 09:19:37;;;;;;;22.60;13.98;;;8.10;58.40;;;;;;4941060;28;20066;-84
2022/02/06 09:22:04;;;;;;;25.23;14.70;;;8.10;58.50;;;;;;4931880;28;20384;-84
2022/02/06 09:24:30;;;;;;;22.42;14.98;;;8.10;58.60;;;;;;4940042;28;20030;-84
2022/02/06 09:26:56;;;;;;;21.63;14.05;;;8.20;58.60;;;;;;4957484;28;20035;-83
2022/02/06 09:29:23;;;;;;;24.75;15.85;;;8.20;58.50;;;;;;4925302;28;20091;-83
2022/02/06 09:31:51;;;;;;;22.50;15.43;;;8.20;58.30;;;;;;4939140;28;20035;-83
2022/02/06 09:36:44;;;;;;;24.67;14.85;;;8.20;58.30;;;;;;4940322;28;20426;-83
2022/02/06 09:39:11;;;;;;;23.83;15.00;;;8.20;58.30;;;;;;4941589;28;20026;-83
2022/02/06 09:41:45;;;;;;;25.10;14.65;;;8.30;58.30;;;;;;4937551;28;20102;-86
2022/02/06 09:44:15;;;;;;;23.73;14.52;;;8.30;58.30;;;;;;4940706;28;20050;-83
2022/02/06 09:46:45;;;;;;;23.98;14.52;;;8.30;58.30;;;;;;4935175;28;20045;-82
2022/02/06 09:49:13;;;;;;;23.55;14.73;;;8.30;58.30;;;;;;4955228;28;20034;-83
2022/02/06 09:51:42;;;;;;;22.42;13.80;;;8.30;58.20;;;;;;4924239;28;20041;-84
2022/02/06 09:54:09;;;;;;;22.88;13.75;;;8.30;58.30;;;;;;4955289;28;20054;-84
2022/02/06 09:56:42;;;;;;;26.77;15.25;;;8.30;58.20;;;;;;4939311;28;20163;-83
2022/02/06 09:59:17;;;;;;;23.13;13.90;;;8.40;58.10;;;;;;4957164;28;20482;-83
2022/02/06 10:01:46;;;;;;;19.50;13.70;;;8.30;58.20;;;;;;4939740;28;20179;-83
2022/02/06 10:04:18;;;;;;;22.08;13.45;;;8.40;58.30;;;;;;4955078;28;20035;-84
2022/02/06 10:07:02;;;;;;;21.80;13.25;;;8.40;58.30;;;;;;4939977;28;20046;-86
2022/02/06 10:09:40;;;;;;;23.50;13.95;;;8.40;58.30;;;;;;4940016;28;20043;-84
2022/02/06 10:12:07;;;;;;;22.15;13.32;;;8.40;58.30;;;;;;4915266;28;20039;-85
2022/02/06 10:14:36;;;;;;;20.92;13.73;;;8.40;57.90;;;;;;4953844;28;20510;-84
2022/02/06 10:17:03;;;;;;;21.73;13.70;;;8.40;57.40;;;;;;4959172;28;20051;-83
2022/02/06 10:19:30;;;;;;;21.85;15.85;;;8.40;57.10;;;;;;4933190;28;20035;-84
2022/02/06 10:21:56;;;;;;;24.17;14.07;;;8.40;57.20;;;;;;4948617;28;20026;-82
2022/02/06 10:24:29;;;;;;;22.67;14.10;;;8.40;57.10;;;;;;4948879;28;20058;-82
2022/02/06 10:27:31;;;;;;;19.88;13.75;;;8.40;56.90;;;;;;4964260;28;20518;-84
2022/02/06 10:29:57;;;;;;;18.73;13.23;;;8.40;56.80;;;;;;4964041;28;20047;-84
2022/02/06 10:32:23;;;;;;;17.92;12.50;;;8.40;56.80;;;;;;4965164;28;20031;-83
2022/02/06 10:34:49;;;;;;;19.67;13.40;;;8.40;56.60;;;;;;4962971;28;20037;-84
2022/02/06 10:37:22;;;;;;;21.55;14.20;;;8.40;56.50;;;;;;4948370;28;20038;-83
2022/02/06 10:40:00;;;;;;;21.35;13.63;;;8.50;56.40;;;;;;4949408;28;20434;-84
2022/02/06 10:42:28;;;;;;;20.30;13.52;;;8.50;56.20;;;;;;4964978;28;20490;-84
2022/02/06 10:45:19;;;;;;;19.95;13.32;;;8.60;56.20;;;;;;4963235;28;20434;-83
2022/02/06 10:47:47;;;;;;;17.92;12.60;;;8.50;56.20;;;;;;4965113;28;20155;-82
2022/02/06 10:50:15;;;;;;;20.50;13.15;;;8.50;56.10;;;;;;4934109;28;20601;-84
2022/02/06 10:52:44;;;;;;;20.23;13.10;;;8.50;55.90;;;;;;4950101;28;20047;-84
2022/02/06 10:55:10;;;;;;;21.13;13.55;;;8.50;55.90;;;;;;4964759;28;20516;-84
2022/02/06 10:57:37;;;;;;;20.80;14.18;;;8.50;55.90;;;;;;4948584;28;20078;-84
2022/02/06 11:00:07;;;;;;;22.20;14.40;;;8.50;56.00;;;;;;4918321;28;20034;-84
2022/02/06 11:02:56;;;;;;;20.88;14.52;;;8.50;55.90;;;;;;4968784;28;20030;-84
2022/02/06 11:05:32;;;;;;;20.02;13.40;;;8.50;56.00;;;;;;4964937;28;20037;-82
2022/02/06 11:08:01;;;;;;;19.83;13.27;;;8.50;55.90;;;;;;4964153;28;20027;-82
2022/02/06 11:10:30;;;;;;;20.88;12.63;;;8.50;55.90;;;;;;4964300;28;20042;-82
2022/02/06 11:13:04;;;;;;;20.77;13.80;;;8.50;56.00;;;;;;4966204;28;20502;-83
2022/02/06 11:15:38;;;;;;;22.25;14.48;;;8.50;55.80;;;;;;4965510;28;20209;-85
2022/02/06 11:18:19;;;;;;;18.90;13.05;;;8.50;55.80;;;;;;4913866;29;20210;-83
2022/02/06 11:21:00;;;;;;;22.58;13.63;;;8.50;56.40;;;;;;4976463;28;20502;-82
2022/02/06 11:23:38;;;;;;;19.60;12.68;;;8.50;56.60;;;;;;4945608;29;20514;-83
2022/02/06 11:26:11;;;;;;;20.42;13.73;;;8.50;56.70;;;;;;4945863;29;20126;-84
2022/02/06 11:28:39;;;;;;;22.98;14.73;;;8.50;56.60;;;;;;4945311;28;20043;-83
2022/02/06 11:31:05;;;;;;;21.13;13.73;;;8.50;56.60;;;;;;4947509;28;20098;-83
2022/02/06 11:33:31;;;;;;;20.63;13.60;;;8.50;56.50;;;;;;4950226;28;20126;-83
2022/02/06 11:36:02;;;;;;;23.08;14.77;;;8.50;56.60;;;;;;4948175;29;20118;-83
2022/02/06 11:44:49;;;;;;;23.00;13.38;;;8.60;56.20;;;;;;4937748;29;20043;-82
2022/02/06 11:47:27;;;;;;;19.90;13.30;;;8.60;56.50;;;;;;4939974;29;20055;-82
2022/02/06 11:49:57;;;;;;;22.65;14.02;;;8.60;56.60;;;;;;4939701;29;20043;-82
2022/02/06 11:52:50;;;;;;;20.88;14.13;;;8.60;56.70;;;;;;4955384;29;20039;-82
2022/02/06 11:55:36;;;;;;;21.48;13.90;;;8.60;56.60;;;;;;4954394;29;20392;-86
2022/02/06 11:58:31;;;;;;;21.05;13.85;;;8.60;56.60;;;;;;4971107;28;20035;-85
2022/02/06 12:01:06;;;;;;;20.25;13.18;;;8.60;56.50;;;;;;4954882;28;20232;-85
2022/02/06 12:04:01;;;;;;;21.70;13.75;;;8.60;56.50;;;;;;4953038;29;20043;-83
2022/02/06 12:06:37;;;;;;;20.80;14.20;;;8.60;56.50;;;;;;4954106;29;20090;-86
2022/02/06 12:09:03;;;;;;;22.63;14.20;;;8.60;56.60;;;;;;4951202;29;20043;-84
2022/02/06 12:11:30;;;;;;;22.10;13.77;;;8.60;56.50;;;;;;4968680;28;20046;-87
2022/02/06 12:14:22;;;;;;;21.70;14.40;;;8.60;56.50;;;;;;4951570;29;20039;-85
2022/02/06 12:17:56;;;;;;;21.02;13.30;;;8.60;56.50;;;;;;4961554;28;20394;-84
2022/02/06 12:20:07;;;;;;;22.20;14.35;;;8.60;56.50;;;;;;4947109;28;20043;-84
2022/02/06 12:22:37;;;;;;;25.23;14.27;;;8.60;56.50;;;;;;4987669;28;20043;-85
2022/02/06 12:25:30;;;;;;;20.80;13.50;;;8.60;56.50;;;;;;4940830;28;20066;-86
2022/02/06 12:28:21;;;;;;;21.80;13.45;;;8.70;56.70;;;;;;4971515;28;20477;-86
2022/02/06 12:30:48;;;;;;;21.10;13.57;;;8.60;56.60;;;;;;4955288;28;20054;-88
2022/02/06 12:33:26;;;;;;;21.50;14.48;;;8.60;56.60;;;;;;4967957;28;20038;-79
2022/02/06 12:38:37;;;;;;;22.85;14.27;;;8.60;56.80;;;;;;4970812;28;20041;-81
2022/02/06 12:41:30;;;;;;;21.00;13.82;;;8.60;56.60;;;;;;4950722;28;20023;-82
2022/02/06 12:44:03;;;;;;;19.35;12.65;;;8.60;56.80;;;;;;4951377;28;20383;-82
2022/02/06 12:46:29;;;;;;;19.08;12.90;;;8.60;57.30;;;;;;4967592;28;20403;-83
2022/02/06 12:49:00;;;;;;;19.88;13.10;;;8.60;57.60;;;;;;4966970;28;20085;-82
2022/02/06 12:51:31;;;;;;;18.63;12.95;;;8.60;58.00;;;;;;4948226;28;20034;-81
2022/02/06 12:54:05;;;;;;;20.52;13.05;;;8.60;58.20;;;;;;4964179;28;20031;-82
2022/02/06 12:56:33;;;;;;;21.40;13.80;;;8.60;58.40;;;;;;4935673;28;20506;-80
2022/02/06 12:59:00;;;;;;;22.48;13.93;;;8.60;58.50;;;;;;4965976;28;20027;-82
2022/02/06 13:01:42;;;;;;;19.25;13.00;;;8.60;58.60;;;;;;4964985;28;20394;-82
2022/02/06 13:04:22;;;;;;;21.20;12.93;;;8.60;58.90;;;;;;4965781;28;20038;-81
2022/02/06 13:06:51;;;;;;;18.55;12.77;;;8.60;59.10;;;;;;4969650;28;20035;-84
2022/02/06 13:09:31;;;;;;;19.88;13.32;;;8.60;59.50;;;;;;4935177;28;20035;-84
2022/02/06 13:33:59;;;;;;;25.25;14.95;;;8.70;60.70;;;;;;4908264;29;20047;-82
2022/02/06 13:36:43;;;;;;;23.85;15.20;;;8.70;60.80;;;;;;4894941;29;20036;-83
2022/02/06 13:39:19;;;;;;;23.88;15.65;;;8.70;61.00;;;;;;4907822;29;20100;-83
2022/02/06 13:41:45;;;;;;;28.33;15.15;;;8.70;61.10;;;;;;4891978;29;20055;-83
2022/02/06 13:44:14;;;;;;;20.42;13.70;;;8.70;61.20;;;;;;4892415;29;20783;-80
2022/02/06 13:46:42;;;;;;;21.88;14.65;;;8.70;61.40;;;;;;4892542;29;20035;-83
2022/02/06 13:49:08;;;;;;;25.73;15.13;;;8.70;61.40;;;;;;4912118;29;20032;-81
2022/02/06 13:51:46;;;;;;;21.83;14.38;;;8.70;61.60;;;;;;4907508;29;20107;-82
2022/02/06 13:54:13;;;;;;;24.40;14.55;;;8.70;61.80;;;;;;4907711;29;20921;-82
2022/02/06 13:56:39;;;;;;;23.65;14.00;;;8.70;61.60;;;;;;4908025;29;20082;-82
2022/02/06 13:59:10;;;;;;;24.27;14.57;;;8.60;61.60;;;;;;4907192;29;20072;-82
2022/02/06 14:01:43;;;;;;;21.20;14.32;;;8.70;61.80;;;;;;4907428;29;20032;-82
2022/02/06 14:04:28;;;;;;;20.98;14.65;;;8.60;62.00;;;;;;4934766;28;20042;-81
2022/02/06 14:07:19;;;;;;;23.15;14.90;;;8.70;62.20;;;;;;4965043;28;20037;-82
2022/02/06 14:10:08;;;;;;;21.50;14.57;;;8.60;62.20;;;;;;4965016;28;20039;-81
2022/02/06 14:12:54;;;;;;;21.20;14.30;;;8.60;62.10;;;;;;4965441;28;20450;-81
2022/02/06 14:15:25;;;;;;;26.38;14.43;;;8.60;62.20;;;;;;4965169;28;20085;-82
2022/02/06 14:17:55;;;;;;;24.20;15.50;;;8.60;62.30;;;;;;4942823;28;20126;-82
2022/02/06 14:20:25;;;;;;;22.90;14.45;;;8.60;62.40;;;;;;4945175;29;20042;-81
2022/02/06 14:23:02;;;;;;;21.85;13.73;;;8.60;62.50;;;;;;4944216;29;20028;-80
2022/02/06 14:25:36;;;;;;;19.50;13.52;;;8.60;62.80;;;;;;4946199;28;20058;-82
2022/02/06 14:28:24;;;;;;;21.27;14.55;;;8.60;62.80;;;;;;4946842;28;20057;-85
2022/02/06 14:30:50;;;;;;;20.33;13.88;;;8.70;62.90;;;;;;4961450;28;20125;-86
2022/02/06 14:33:27;;;;;;;23.35;15.70;;;8.60;62.80;;;;;;4930848;29;20035;-88
2022/02/06 14:36:05;;;;;;;22.05;14.65;;;8.60;62.70;;;;;;4944938;29;20494;-84
2022/02/06 14:38:45;;;;;;;23.92;14.77;;;8.60;62.10;;;;;;4945038;29;20046;-83
2022/02/06 14:41:23;;;;;;;19.88;14.68;;;8.60;61.50;;;;;;4945696;29;21288;-84
2022/02/06 14:43:58;;;;;;;21.05;14.30;;;8.60;61.00;;;;;;4931405;29;20031;-87
2022/02/06 14:46:26;;;;;;;23.75;15.25;;;8.60;60.50;;;;;;4945335;29;20078;-82
2022/02/06 14:48:52;;;;;;;23.60;15.35;;;8.50;60.10;;;;;;4958472;28;20062;-82
2022/02/06 14:51:20;;;;;;;22.23;15.27;;;8.50;59.90;;;;;;4947432;28;20086;-83
2022/02/06 14:53:46;;;;;;;21.48;14.65;;;8.50;59.70;;;;;;4962425;28;20075;-83
2022/02/06 14:56:13;;;;;;;22.92;15.52;;;8.50;59.60;;;;;;4945562;29;20042;-83
2022/02/06 14:58:42;;;;;;;25.80;15.52;;;8.50;59.50;;;;;;4945317;29;20066;-84
2022/02/06 15:01:08;;;;;;;21.63;14.95;;;8.50;59.60;;;;;;4946398;29;20030;-84
2022/02/06 15:03:34;;;;;;;22.60;13.88;;;8.40;59.50;;;;;;4929686;29;20023;-82
2022/02/06 15:06:00;;;;;;;22.33;14.88;;;8.40;59.50;;;;;;4961116;28;20070;-82
2022/02/06 15:08:26;;;;;;;22.35;14.80;;;8.40;59.50;;;;;;4961463;28;20054;-82
2022/02/06 15:10:52;;;;;;;22.88;15.38;;;8.40;59.50;;;;;;4959841;28;20043;-81
2022/02/06 15:13:18;;;;;;;21.27;14.10;;;8.40;60.10;;;;;;4945989;28;20028;-83
2022/02/06 15:16:21;;;;;;;26.55;15.13;;;8.40;59.30;;;;;;4947699;29;20039;-82
2022/02/06 15:18:42;;;;;;;23.75;15.55;;;8.40;59.50;;;;;;4975003;28;20141;-80
2022/02/06 15:21:10;;;;;;;23.55;14.65;;;8.40;60.30;;;;;;4945477;29;20093;-84
2022/02/06 15:23:38;;;;;;;27.27;18.70;;;8.40;64.00;;;;;;4944068;29;20039;-80
2022/02/06 15:26:04;;;;;;;30.60;20.15;;;8.40;61.30;;;;;;4946732;29;20039;-85
2022/02/06 15:28:31;;;;;;;29.15;19.42;;;8.20;55.40;;;;;;4945170;29;20043;-84
2022/02/06 15:30:57;;;;;;;45.50;20.40;;;8.00;52.60;;;;;;4947722;29;20039;-94
2022/02/06 15:33:24;;;;;;;31.20;19.00;;;7.80;52.80;;;;;;4969394;28;20043;-96
2022/02/06 15:35:51;;;;;;;33.30;19.85;;;7.60;54.60;;;;;;4955608;29;20051;-91